Time;durP1;ratioP1;P1;durP2;ratioP2;P2;SDS_P1;SDS_P2;PMS_P1;PMS_P2;Temp;Humidity;BMP_temperature;BMP_pressure;BME280_temperature;BME280_humidity;BME280_pressure;Samples;Min_cycle;Max_cycle;Signal;HPM_P1;HPM_P2
2022/10/17 07:24:02;;;;;;;9.90;2.35;;;;;;;19.88;62.84;97298.25;2102311;28;20427;-68
2022/10/17 07:25:03;;;;;;;9.67;2.80;;;;;;;20.14;61.69;97271.66;2092385;28;388999;-69
2022/10/17 07:26:08;;;;;;;11.20;2.58;;;;;;;20.32;61.37;97293.31;2106359;28;20199;-68
2022/10/17 07:27:11;;;;;;;7.10;2.38;;;;;;;19.82;62.20;97282.75;2099913;28;20694;-69
2022/10/17 07:28:15;;;;;;;9.48;3.00;;;;;;;19.18;64.64;97297.78;2098055;28;20267;-69
2022/10/17 07:29:17;;;;;;;8.18;2.70;;;;;;;20.02;62.65;97290.16;2095587;28;20204;-69
2022/10/17 07:30:19;;;;;;;6.65;2.60;;;;;;;21.02;60.24;97281.00;2096548;28;20979;-68
2022/10/17 07:31:21;;;;;;;4.53;1.75;;;;;;;21.19;58.98;97288.50;2098116;28;20287;-69
2022/10/17 07:38:31;;;;;;;9.35;2.47;;;;;;;20.76;59.19;97291.81;2100572;27;390121;-68
2022/10/17 07:39:34;;;;;;;4.30;2.45;;;;;;;20.90;58.61;97289.91;2113629;28;20289;-69
2022/10/17 07:40:35;;;;;;;11.82;2.30;;;;;;;20.31;60.95;97296.91;2089999;27;20225;-69
2022/10/17 07:41:37;;;;;;;7.95;3.13;;;;;;;21.43;58.45;97300.81;2082319;28;20280;-69
2022/10/17 07:54:05;;;;;;;5.43;1.92;;;;;;;22.44;55.25;97295.50;2090511;28;20180;-69
2022/10/17 07:55:07;;;;;;;10.25;2.00;;;;;;;23.37;53.56;97301.06;2089195;28;20294;-69
2022/10/17 07:56:09;;;;;;;8.27;1.80;;;;;;;23.26;53.31;97307.28;2091260;28;20255;-69
2022/10/17 07:57:10;;;;;;;4.80;1.50;;;;;;;23.89;52.59;97303.63;2090087;28;20528;-69
2022/10/17 07:58:12;;;;;;;3.03;1.63;;;;;;;23.58;53.03;97311.63;2089495;28;20685;-69
2022/10/17 07:59:14;;;;;;;5.57;1.73;;;;;;;23.41;53.15;97307.78;2089079;28;21235;-69
2022/10/17 08:00:15;;;;;;;14.07;1.77;;;;;;;22.14;55.60;97302.34;2089412;28;20559;-69
2022/10/17 08:01:17;;;;;;;7.97;1.80;;;;;;;22.48;55.67;97304.91;2088817;28;20917;-68
2022/10/17 08:02:24;;;;;;;6.27;1.90;;;;;;;22.31;56.21;97308.94;2096589;28;20467;-68
2022/10/17 08:03:25;;;;;;;3.30;1.73;;;;;;;23.36;53.91;97310.00;2087495;28;20513;-69
2022/10/17 08:04:27;;;;;;;12.73;1.90;;;;;;;24.17;52.81;97314.53;2094776;28;20621;-68
2022/10/17 08:05:33;;;;;;;13.80;2.37;;;;;;;24.58;52.63;97310.78;2089778;28;20568;-68
2022/10/17 08:13:03;;;;;;;10.68;2.40;;;;;;;23.01;54.71;97285.41;2089944;28;20433;-68
2022/10/17 08:14:05;;;;;;;16.35;2.40;;;;;;;23.21;54.37;97305.03;2088436;28;20200;-68
2022/10/17 08:15:08;;;;;;;4.20;2.20;;;;;;;23.95;52.82;97301.28;2089036;28;20287;-68
2022/10/17 08:16:11;;;;;;;5.55;1.70;;;;;;;23.50;53.66;97306.97;2088907;28;20228;-68
2022/10/17 08:17:12;;;;;;;7.93;2.20;;;;;;;23.74;52.80;97297.81;2089478;28;20255;-68
2022/10/17 08:18:16;;;;;;;9.95;2.35;;;;;;;24.38;52.02;97303.72;2082014;28;20664;-68
2022/10/17 08:19:17;;;;;;;10.45;2.20;;;;;;;24.05;53.06;97308.44;2090690;28;20290;-68
2022/10/17 08:20:19;;;;;;;6.50;2.00;;;;;;;24.76;51.37;97302.09;2089784;28;20227;-68
2022/10/17 08:21:20;;;;;;;3.35;1.92;;;;;;;24.72;49.71;97298.00;2091069;28;20294;-68
2022/10/17 08:22:22;;;;;;;7.35;1.80;;;;;;;25.05;50.24;97306.53;2086830;28;20267;-68
2022/10/17 08:23:23;;;;;;;5.70;1.55;;;;;;;25.08;49.23;97299.06;2088491;28;20211;-68
2022/10/17 08:24:25;;;;;;;10.88;2.28;;;;;;;25.48;48.25;97301.66;2089259;28;20245;-68
2022/10/17 08:25:26;;;;;;;6.25;1.77;;;;;;;25.76;47.75;97313.22;2089174;28;20307;-68
2022/10/17 08:26:29;;;;;;;7.65;1.90;;;;;;;26.06;47.01;97320.13;2090119;28;20239;-68
2022/10/17 08:27:34;;;;;;;7.53;1.58;;;;;;;25.93;47.52;97316.94;2090897;28;20224;-68
2022/10/17 08:28:37;;;;;;;5.63;1.70;;;;;;;26.17;47.24;97319.09;2091816;28;20199;-68
2022/10/17 08:29:39;;;;;;;5.38;1.55;;;;;;;26.67;46.43;97316.91;2091328;28;20207;-68
2022/10/17 08:30:41;;;;;;;2.90;1.47;;;;;;;27.00;45.54;97320.72;2088755;28;20252;-68
2022/10/17 08:31:42;;;;;;;4.18;1.70;;;;;;;26.86;45.58;97313.25;2090717;28;20461;-68
2022/10/17 08:32:50;;;;;;;3.83;1.63;;;;;;;26.73;46.06;97325.19;2090192;28;20231;-69
2022/10/17 08:33:51;;;;;;;9.40;1.50;;;;;;;26.78;45.05;97327.41;2088782;28;20454;-68
2022/10/17 08:34:54;;;;;;;6.23;1.10;;;;;;;26.33;45.90;97328.28;2090277;28;20926;-69
2022/10/17 08:35:57;;;;;;;3.27;1.90;;;;;;;26.24;46.10;97327.34;2091982;28;20523;-69
2022/10/17 08:42:04;;;;;;;5.55;1.35;;;;;;;25.82;47.67;97326.00;2098670;28;21128;-69
2022/10/17 08:43:13;;;;;;;5.57;1.57;;;;;;;26.16;47.23;97329.94;2099392;28;20207;-69
2022/10/17 08:44:42;;;;;;;5.50;1.30;;;;;;;26.81;46.45;97321.72;2097358;28;20954;-69
2022/10/17 08:45:46;;;;;;;7.22;1.58;;;;;;;27.29;45.41;97330.28;2098608;28;20722;-67
2022/10/17 08:46:52;;;;;;;10.03;1.60;;;;;;;27.00;45.92;97311.84;2097898;28;20302;-68
2022/10/17 08:47:58;;;;;;;3.00;1.27;;;;;;;27.54;45.09;97315.22;2100568;28;20530;-67
2022/10/17 08:49:10;;;;;;;2.67;1.50;;;;;;;27.67;44.34;97330.88;2097143;28;20512;-68
2022/10/17 08:50:43;;;;;;;7.20;1.40;;;;;;;26.89;45.54;97324.50;2092006;28;20456;-67
2022/10/17 08:52:01;;;;;;;4.60;1.30;;;;;;;26.38;46.21;97323.31;2093846;28;21122;-67
2022/10/17 08:53:24;;;;;;;2.97;1.40;;;;;;;26.34;46.72;97319.25;2093340;28;20479;-67
2022/10/17 08:54:39;;;;;;;7.13;2.20;;;;;;;25.42;48.69;97319.16;2089460;28;20425;-67
2022/10/17 08:55:49;;;;;;;6.50;1.30;;;;;;;25.70;47.95;97319.16;2092199;28;20679;-67
2022/10/17 08:56:53;;;;;;;4.60;1.65;;;;;;;25.49;48.18;97290.00;2086288;28;20234;-67
2022/10/17 08:57:54;;;;;;;6.82;1.30;;;;;;;26.01;47.93;97319.72;2093069;28;20259;-67
2022/10/17 08:58:56;;;;;;;6.88;1.33;;;;;;;26.15;47.55;97320.25;2091793;28;20243;-67
2022/10/17 09:00:01;;;;;;;8.55;1.23;;;;;;;26.12;47.59;97329.41;2091205;28;20277;-67
2022/10/17 09:06:10;;;;;;;9.35;1.38;;;;;;;27.22;45.96;97326.56;2093045;28;20215;-68
2022/10/17 09:07:22;;;;;;;6.30;1.92;;;;;;;27.29;45.58;97324.09;2096811;28;20869;-67
2022/10/17 09:09:05;;;;;;;5.00;1.90;;;;;;;27.75;44.66;97326.56;2096158;28;20816;-67
2022/10/17 09:10:32;;;;;;;8.60;1.45;;;;;;;27.65;44.38;97324.81;2075393;28;20235;-67
2022/10/17 09:11:48;;;;;;;3.80;1.50;;;;;;;27.43;45.26;97323.53;2068084;28;20614;-67
2022/10/17 09:13:25;;;;;;;4.20;1.27;;;;;;;27.00;46.32;97322.56;2092616;28;20520;-67
2022/10/17 09:14:37;;;;;;;7.03;1.40;;;;;;;26.87;45.86;97331.00;2093204;28;20195;-67
2022/10/17 09:15:52;;;;;;;2.85;1.35;;;;;;;26.88;46.45;97329.97;2093956;28;20810;-67
2022/10/17 09:17:31;;;;;;;6.43;1.40;;;;;;;26.95;46.16;97328.38;2092630;28;20860;-67
2022/10/17 09:18:37;;;;;;;3.38;1.70;;;;;;;26.10;47.04;97330.56;2091570;28;20775;-67
2022/10/17 09:19:45;;;;;;;4.57;1.27;;;;;;;25.84;47.77;97317.81;2092882;28;20295;-67
2022/10/17 09:20:52;;;;;;;3.28;1.58;;;;;;;25.34;48.63;97309.13;2092563;28;20275;-67
2022/10/17 09:22:08;;;;;;;2.90;1.45;;;;;;;25.68;48.54;97318.47;2093098;28;20751;-69
2022/10/17 09:23:15;;;;;;;6.72;1.52;;;;;;;25.84;48.09;97328.53;2092212;28;20220;-69
2022/10/17 09:24:41;;;;;;;5.65;1.10;;;;;;;26.41;46.94;97325.72;2093958;28;20279;-69
2022/10/17 09:25:54;;;;;;;5.28;1.75;;;;;;;26.60;46.11;97313.16;2086412;28;20227;-69
2022/10/17 09:26:55;;;;;;;2.75;1.50;;;;;;;27.45;44.84;97323.38;2086737;28;20238;-69
2022/10/17 09:28:13;;;;;;;3.10;1.42;;;;;;;27.91;44.27;97317.72;2096528;28;20231;-67
2022/10/17 09:29:20;;;;;;;3.00;1.55;;;;;;;28.63;42.99;97312.75;2095132;28;20304;-67
2022/10/17 09:48:45;;;;;;;4.72;1.45;;;;;;;28.65;42.52;97329.53;2091110;28;20224;-67
2022/10/17 09:49:54;;;;;;;13.60;1.85;;;;;;;29.12;41.71;97321.84;2092910;28;20199;-67
2022/10/17 09:50:55;;;;;;;14.40;2.10;;;;;;;28.94;40.88;97313.97;2092571;28;20224;-68
2022/10/17 09:52:33;;;;;;;7.22;1.40;;;;;;;29.07;41.91;97322.34;2091516;28;20257;-67
2022/10/17 09:53:41;;;;;;;5.03;1.70;;;;;;;27.84;43.56;97307.63;2092720;28;20232;-67
2022/10/17 10:06:14;;;;;;;4.70;1.60;;;;;;;27.97;43.58;97335.88;2092717;28;20212;-67
2022/10/17 10:07:16;;;;;;;7.57;2.10;;;;;;;27.70;43.43;97335.91;2093287;28;20278;-67
2022/10/17 10:08:18;;;;;;;6.78;1.67;;;;;;;28.01;44.23;97339.91;2092242;28;20228;-66
2022/10/17 10:09:29;;;;;;;3.75;1.42;;;;;;;28.17;43.53;97334.63;2090699;28;20222;-67
2022/10/17 10:10:31;;;;;;;5.85;1.42;;;;;;;28.34;43.83;97332.84;2091457;28;20223;-66
2022/10/17 10:11:51;;;;;;;6.72;1.65;;;;;;;28.41;43.67;97329.50;2093964;28;20236;-67
2022/10/17 10:13:16;;;;;;;5.78;1.60;;;;;;;28.82;43.36;97330.41;2091876;28;20192;-67
2022/10/17 10:14:38;;;;;;;6.10;1.52;;;;;;;29.33;42.48;97337.44;2099515;28;20889;-67
2022/10/17 10:15:43;;;;;;;5.20;1.50;;;;;;;29.16;42.15;97334.75;2094556;28;20314;-67
2022/10/17 10:16:46;;;;;;;7.38;1.35;;;;;;;28.90;42.52;97329.56;2092535;28;20224;-66
2022/10/17 10:17:47;;;;;;;2.55;1.45;;;;;;;28.44;43.52;97332.69;2096736;28;20230;-66
2022/10/17 10:18:50;;;;;;;8.05;1.48;;;;;;;28.19;43.68;97332.63;2096594;28;20886;-68
2022/10/17 10:19:53;;;;;;;3.60;1.77;;;;;;;29.34;41.77;97328.38;2091269;28;20228;-68
2022/10/17 10:21:05;;;;;;;7.18;1.40;;;;;;;29.88;40.91;97343.91;2092361;28;20683;-69
2022/10/17 10:22:25;;;;;;;5.45;1.77;;;;;;;30.27;40.25;97331.44;2092303;28;20286;-68
2022/10/17 10:23:26;;;;;;;9.77;1.70;;;;;;;30.03;41.65;97337.78;2092333;28;20227;-68
2022/10/17 10:24:28;;;;;;;5.38;1.73;;;;;;;30.17;40.94;97344.28;2092526;28;20203;-68
2022/10/17 10:25:32;;;;;;;7.72;1.85;;;;;;;30.67;40.39;97326.81;2091951;28;20215;-66
2022/10/17 10:26:46;;;;;;;3.97;1.42;;;;;;;28.81;42.93;97339.47;2093854;28;20232;-66
2022/10/17 10:27:47;;;;;;;10.73;1.90;;;;;;;30.28;40.50;97347.44;2092783;28;20287;-66
2022/10/17 10:28:56;;;;;;;8.48;1.60;;;;;;;30.95;39.80;97345.97;2092254;28;20208;-66
2022/10/17 10:29:58;;;;;;;6.53;1.30;;;;;;;30.78;40.16;97341.75;2090778;28;20587;-66
2022/10/17 10:42:26;;;;;;;7.25;1.85;;;;;;;30.54;39.40;97340.91;2091017;28;20172;-66
2022/10/17 10:43:33;;;;;;;7.20;1.80;;;;;;;29.95;40.63;97335.97;2088451;28;20312;-66
2022/10/17 10:44:37;;;;;;;5.35;1.63;;;;;;;30.45;39.73;97341.94;2088585;28;20232;-65
2022/10/17 10:45:41;;;;;;;8.23;2.05;;;;;;;30.33;40.25;97344.19;2088259;28;20259;-67
2022/10/17 10:47:15;;;;;;;6.50;1.33;;;;;;;30.86;38.99;97330.91;2092798;28;20202;-66
2022/10/17 10:48:21;;;;;;;4.43;1.58;;;;;;;30.75;39.69;97340.25;2092814;28;20295;-66
2022/10/17 10:49:31;;;;;;;2.60;1.40;;;;;;;31.07;39.20;97343.72;2092048;28;20792;-66
2022/10/17 10:50:46;;;;;;;4.35;1.58;;;;;;;31.42;38.08;97341.38;2092325;28;20715;-66
2022/10/17 10:51:48;;;;;;;4.57;1.55;;;;;;;31.08;38.58;97341.88;2093483;28;20693;-66
2022/10/17 10:53:27;;;;;;;4.88;2.10;;;;;;;31.34;37.93;97341.47;2092614;28;20961;-66
2022/10/17 11:00:01;;;;;;;3.17;1.20;;;;;;;31.14;38.02;97338.44;2091707;28;20203;-67
2022/10/17 11:01:15;;;;;;;4.68;1.40;;;;;;;30.59;39.89;97335.00;2091472;28;20668;-67
2022/10/17 11:02:31;;;;;;;9.30;2.67;;;;;;;30.39;40.27;97337.28;2092245;28;20521;-66
2022/10/17 11:03:41;;;;;;;7.00;1.70;;;;;;;30.42;38.67;97339.59;2094254;28;20669;-66
2022/10/17 11:04:59;;;;;;;8.65;1.30;;;;;;;30.22;39.23;97337.34;2091946;28;20197;-66
2022/10/17 11:12:49;;;;;;;12.32;1.70;;;;;;;29.78;39.29;97336.00;2092199;28;20183;-67
2022/10/17 11:14:02;;;;;;;6.80;1.60;;;;;;;29.40;39.80;97332.25;2092325;28;20870;-67
2022/10/17 11:15:22;;;;;;;3.35;1.58;;;;;;;29.52;39.97;97335.41;2092006;28;20234;-67
2022/10/17 11:16:38;;;;;;;3.15;1.25;;;;;;;29.80;39.75;97336.66;2092566;28;20286;-68
2022/10/17 11:48:09;;;;;;;7.43;1.90;;;;;;;30.72;38.56;97335.22;2089613;28;20188;-77
2022/10/17 11:49:15;;;;;;;8.43;1.60;;;;;;;31.18;37.77;97341.63;2092723;28;20216;-75
2022/10/17 11:50:29;;;;;;;4.10;2.35;;;;;;;31.35;37.85;97329.66;2089690;28;20302;-75
2022/10/17 11:52:25;;;;;;;4.80;2.10;;;;;;;31.12;37.74;97334.25;2091130;28;20233;-77
2022/10/17 11:53:54;;;;;;;5.80;2.00;;;;;;;31.36;38.05;97336.72;2089667;28;20425;-77
2022/10/17 11:55:10;;;;;;;3.00;1.50;;;;;;;31.43;39.22;97334.94;2091395;28;20227;-77
2022/10/17 11:56:13;;;;;;;8.20;2.00;;;;;;;32.11;40.49;97334.03;2092201;28;20498;-78
2022/10/17 11:57:36;;;;;;;5.30;1.60;;;;;;;31.95;38.62;97331.53;2084923;28;20505;-77
2022/10/17 11:58:45;;;;;;;7.53;1.50;;;;;;;32.21;37.98;97336.47;2093440;28;20430;-77
2022/10/17 12:00:17;;;;;;;8.27;1.50;;;;;;;32.36;37.80;97336.44;2092351;28;21195;-77
2022/10/17 12:01:53;;;;;;;4.30;1.57;;;;;;;32.67;37.18;97335.28;2092099;28;20455;-77
2022/10/17 12:03:32;;;;;;;7.03;1.40;;;;;;;32.45;37.67;97335.28;2092395;28;20960;-76
2022/10/17 12:05:06;;;;;;;4.37;1.83;;;;;;;32.59;36.63;97327.31;2090544;28;20507;-76
2022/10/17 12:06:10;;;;;;;4.93;1.80;;;;;;;32.95;36.05;97339.97;2091099;28;20475;-75
2022/10/17 12:07:47;;;;;;;10.67;1.70;;;;;;;33.26;36.30;97331.47;2095507;28;21299;-75
2022/10/17 12:09:00;;;;;;;12.50;1.50;;;;;;;33.15;36.26;97338.25;2071001;28;20771;-75
2022/10/17 12:10:28;;;;;;;1.93;1.03;;;;;;;33.49;36.98;97342.06;2089280;28;21046;-75
2022/10/17 12:12:00;;;;;;;4.20;1.10;;;;;;;33.14;36.70;97342.00;2091993;28;20540;-74
2022/10/17 12:13:27;;;;;;;2.07;1.50;;;;;;;33.46;37.22;97338.94;2078250;28;20441;-74
2022/10/17 12:14:35;;;;;;;1.83;1.20;;;;;;;33.26;39.40;97339.59;2090011;28;20563;-74
2022/10/17 12:15:36;;;;;;;6.13;1.70;;;;;;;33.64;37.78;97331.16;2095707;28;20485;-74
2022/10/17 12:16:42;;;;;;;7.00;1.80;;;;;;;33.35;39.48;97333.03;2097692;28;20512;-74
2022/10/17 12:17:57;;;;;;;5.73;1.67;;;;;;;33.39;38.17;97335.34;2089982;28;20703;-74
2022/10/17 12:19:01;;;;;;;4.10;1.67;;;;;;;33.82;36.94;97337.94;2091013;28;20500;-73
2022/10/17 12:20:23;;;;;;;6.73;1.77;;;;;;;33.02;38.23;97336.28;2087620;28;20441;-73
2022/10/17 12:21:25;;;;;;;4.63;1.77;;;;;;;32.97;36.95;97329.78;2091111;28;20815;-73
2022/10/17 12:22:32;;;;;;;5.57;1.67;;;;;;;32.85;37.51;97326.78;2092884;28;20479;-73
2022/10/17 12:23:37;;;;;;;3.27;1.30;;;;;;;32.31;39.19;97334.28;2092808;28;20503;-73
2022/10/17 12:24:44;;;;;;;4.20;1.50;;;;;;;31.75;39.41;97345.63;2094087;28;20504;-73
2022/10/17 12:25:52;;;;;;;5.30;1.57;;;;;;;31.78;38.46;97342.53;2095007;28;20495;-73
2022/10/17 12:26:55;;;;;;;6.03;2.20;;;;;;;31.77;38.71;97338.19;2094771;28;20787;-73
2022/10/17 12:28:36;;;;;;;6.40;1.37;;;;;;;33.48;36.50;97334.97;2094403;28;20520;-72
2022/10/17 12:29:37;;;;;;;10.13;1.30;;;;;;;32.78;36.49;97326.69;2066545;28;20998;-72
2022/10/17 12:36:01;;;;;;;10.67;1.60;;;;;;;33.48;35.48;97339.56;2065986;28;20431;-72
2022/10/17 12:37:02;;;;;;;3.83;1.70;;;;;;;31.26;37.86;97320.81;2067422;28;20929;-72
2022/10/17 12:38:17;;;;;;;3.57;1.43;;;;;;;31.22;39.03;97337.53;2067967;28;20439;-72
2022/10/17 12:39:40;;;;;;;11.40;1.70;;;;;;;31.58;38.46;97344.94;2066065;28;20801;-72
2022/10/17 12:40:48;;;;;;;4.60;1.17;;;;;;;32.34;37.38;97343.88;2065077;28;20472;-72
2022/10/17 12:41:50;;;;;;;6.20;1.53;;;;;;;32.06;36.59;97339.16;2067269;28;20494;-71
2022/10/17 12:54:14;;;;;;;8.50;1.60;;;;;;;31.16;37.11;97340.94;2063223;28;20447;-71
2022/10/17 12:55:18;;;;;;;8.13;1.40;;;;;;;30.87;37.59;97339.84;2068057;28;20590;-71
2022/10/17 12:56:29;;;;;;;6.37;1.40;;;;;;;29.90;38.95;97339.19;2066426;28;20440;-71
2022/10/17 12:57:47;;;;;;;4.40;1.50;;;;;;;31.06;38.17;97338.53;2066416;28;20464;-73
2022/10/17 12:58:50;;;;;;;3.40;0.97;;;;;;;30.69;37.85;97334.72;2064257;28;20454;-72
2022/10/17 12:59:52;;;;;;;9.50;1.90;;;;;;;31.06;37.61;97331.28;2064248;28;20554;-72
2022/10/17 13:00:59;;;;;;;5.13;1.20;;;;;;;30.92;37.35;97335.56;2071254;28;20419;-72
2022/10/17 13:02:25;;;;;;;5.80;1.20;;;;;;;30.87;37.89;97337.97;2093413;28;20417;-74
2022/10/17 13:03:31;;;;;;;26.93;19.63;;;;;;;31.42;36.61;97351.34;2091686;28;20426;-73
2022/10/17 13:04:35;;;;;;;7.83;4.73;;;;;;;31.47;36.28;97326.50;2089590;28;20540;-72
2022/10/17 13:05:41;;;;;;;19.93;12.03;;;;;;;30.65;36.96;97339.63;2089434;28;21015;-71
2022/10/17 13:12:05;;;;;;;10.57;1.40;;;;;;;30.57;36.83;97347.78;2092940;28;20516;-70
2022/10/17 13:13:17;;;;;;;5.80;1.50;;;;;;;30.40;36.74;97347.84;2093987;28;20509;-71
2022/10/17 13:14:21;;;;;;;8.50;1.00;;;;;;;30.60;37.30;97333.94;2093460;28;20463;-71
2022/10/17 13:15:23;;;;;;;4.17;1.17;;;;;;;31.10;36.48;97337.97;2090531;28;20464;-71
2022/10/17 13:16:34;;;;;;;3.87;1.00;;;;;;;30.53;36.41;97357.25;2092026;28;20453;-70
2022/10/17 13:17:36;;;;;;;7.30;1.13;;;;;;;30.18;37.98;97349.47;2093622;28;20948;-70
2022/10/17 13:18:51;;;;;;;4.17;1.10;;;;;;;30.36;37.42;97343.84;2091952;28;20857;-71
2022/10/17 13:19:54;;;;;;;6.33;1.20;;;;;;;30.38;37.08;97354.44;2093139;28;21046;-71
2022/10/17 13:21:02;;;;;;;4.93;1.13;;;;;;;30.35;37.46;97352.09;2093654;28;20540;-70
2022/10/17 13:22:14;;;;;;;7.03;1.80;;;;;;;30.88;37.18;97352.28;2092565;28;20426;-71
2022/10/17 13:23:23;;;;;;;4.73;1.50;;;;;;;30.96;36.89;97354.91;2091285;28;20524;-70
2022/10/17 13:24:33;;;;;;;5.57;1.47;;;;;;;31.10;36.56;97351.44;2093400;28;20429;-71
2022/10/17 13:25:35;;;;;;;4.10;1.10;;;;;;;30.77;37.21;97357.06;2091455;28;20580;-71
2022/10/17 13:26:44;;;;;;;8.43;1.50;;;;;;;30.66;38.56;97352.09;2093762;28;20429;-71
2022/10/17 13:27:48;;;;;;;7.93;1.60;;;;;;;30.94;37.25;97356.94;2094434;28;21013;-72
2022/10/17 13:29:01;;;;;;;4.63;1.20;;;;;;;30.77;37.71;97357.06;2091984;28;20430;-71
2022/10/17 13:30:29;;;;;;;9.47;1.30;;;;;;;30.48;38.24;97347.00;2090310;28;20432;-72
2022/10/17 13:31:36;;;;;;;3.83;1.20;;;;;;;30.02;38.58;97361.19;2089225;28;20822;-71
2022/10/17 13:32:38;;;;;;;5.00;1.50;;;;;;;30.10;38.23;97360.31;2091273;28;20948;-71
2022/10/17 13:33:41;;;;;;;6.30;1.50;;;;;;;29.78;38.52;97346.75;2089752;28;20449;-71
2022/10/17 13:34:42;;;;;;;6.43;1.60;;;;;;;29.52;38.61;97347.00;2094232;28;20872;-71
2022/10/17 13:47:05;;;;;;;3.77;1.47;;;;;;;28.90;38.75;97367.19;2093188;28;20536;-74
2022/10/17 13:48:18;;;;;;;7.33;1.60;;;;;;;28.29;39.84;97362.03;2091555;28;20516;-73
2022/10/17 13:49:33;;;;;;;4.00;1.30;;;;;;;28.24;40.41;97359.00;2090438;28;20456;-73
2022/10/17 13:50:40;;;;;;;8.93;1.73;;;;;;;27.79;40.89;97349.38;2091414;28;20483;-73
2022/10/17 13:51:48;;;;;;;10.50;1.50;;;;;;;27.90;40.37;97365.19;2091856;28;20868;-74
2022/10/17 13:53:16;;;;;;;6.83;1.50;;;;;;;28.14;40.18;97371.72;2092252;28;20246;-74
2022/10/17 13:54:39;;;;;;;6.95;1.42;;;;;;;27.48;40.86;97369.50;2093438;28;20437;-73
2022/10/17 13:56:15;;;;;;;3.38;1.55;;;;;;;27.77;41.46;97375.50;2091805;28;20235;-73
2022/10/17 13:57:30;;;;;;;5.75;1.30;;;;;;;27.68;41.26;97356.72;2089481;28;20706;-73
2022/10/17 13:58:40;;;;;;;3.13;1.38;;;;;;;28.14;40.97;97377.91;2094078;28;20265;-73
2022/10/17 13:59:42;;;;;;;5.45;1.30;;;;;;;28.05;41.21;97372.66;2095662;28;20346;-73
2022/10/17 14:00:47;;;;;;;5.05;1.40;;;;;;;28.65;40.20;97367.13;2091579;28;20311;-73
2022/10/17 14:01:51;;;;;;;9.40;2.05;;;;;;;29.09;40.29;97370.53;2092288;28;20323;-73
2022/10/17 14:02:52;;;;;;;6.38;1.25;;;;;;;29.29;39.83;97368.38;2093027;28;20204;-73
2022/10/17 14:03:54;;;;;;;6.65;1.60;;;;;;;28.72;40.10;97374.56;2093295;28;20610;-73
2022/10/17 14:05:15;;;;;;;3.38;1.05;;;;;;;28.86;40.31;97362.31;2092469;28;20238;-73
2022/10/17 14:06:29;;;;;;;15.07;1.88;;;;;;;28.61;40.67;97375.69;2094020;28;20195;-73
2022/10/17 14:07:38;;;;;;;4.40;1.45;;;;;;;28.32;41.05;97363.53;2094693;28;20196;-73
2022/10/17 14:09:04;;;;;;;3.07;1.10;;;;;;;28.71;40.99;97368.34;2096333;28;20268;-74
2022/10/17 14:10:21;;;;;;;4.90;1.20;;;;;;;28.54;40.33;97355.88;2093719;28;21272;-71
2022/10/17 14:11:36;;;;;;;5.43;1.30;;;;;;;28.75;40.61;97371.56;2093242;28;20202;-71
2022/10/17 14:12:41;;;;;;;3.13;1.10;;;;;;;28.60;40.29;97369.47;2092524;28;20425;-71
2022/10/17 14:13:48;;;;;;;2.93;1.50;;;;;;;28.86;40.46;97371.22;2090995;28;20200;-71
2022/10/17 14:14:53;;;;;;;5.90;1.60;;;;;;;28.67;41.07;97362.47;2091633;28;20443;-71
2022/10/17 14:16:11;;;;;;;3.10;1.33;;;;;;;29.23;40.27;97367.19;2092431;28;20441;-71
2022/10/17 14:24:28;;;;;;;5.83;1.27;;;;;;;29.92;37.35;97363.25;2093427;28;20463;-71
2022/10/17 14:25:35;;;;;;;7.03;1.40;;;;;;;29.24;38.03;97368.03;2090994;28;20457;-72
2022/10/17 14:26:49;;;;;;;7.07;1.60;;;;;;;29.72;37.85;97368.16;2090283;28;21049;-71
2022/10/17 14:28:02;;;;;;;3.60;1.23;;;;;;;29.78;38.29;97354.00;2095020;28;21000;-72
2022/10/17 14:29:17;;;;;;;5.57;1.57;;;;;;;29.76;38.04;97370.31;2090007;28;20520;-71
2022/10/17 14:30:24;;;;;;;5.53;1.33;;;;;;;30.07;37.14;97369.56;2091183;28;20557;-72
2022/10/17 14:31:49;;;;;;;6.20;1.50;;;;;;;30.01;37.35;97372.94;2092527;28;20440;-73
2022/10/17 14:33:00;;;;;;;7.10;1.83;;;;;;;30.15;36.78;97370.56;2088703;28;20430;-73
2022/10/17 14:34:03;;;;;;;8.97;1.77;;;;;;;29.90;37.26;97367.94;2091021;28;20492;-73
2022/10/17 14:35:05;;;;;;;2.80;1.60;;;;;;;29.48;37.89;97368.03;2090392;28;21175;-73
2022/10/17 14:36:39;;;;;;;9.37;1.30;;;;;;;28.94;38.65;97348.91;2091495;28;20429;-73
2022/10/17 14:37:44;;;;;;;3.83;1.50;;;;;;;29.15;38.58;97351.91;2092830;28;20511;-73
2022/10/17 14:38:50;;;;;;;7.00;1.83;;;;;;;29.30;38.54;97368.22;2093545;28;20463;-71
2022/10/17 14:39:54;;;;;;;3.70;1.37;;;;;;;29.30;38.11;97365.53;2093434;28;20460;-71
2022/10/17 14:41:04;;;;;;;4.97;1.10;;;;;;;28.82;39.46;97368.03;2087585;28;20473;-71
2022/10/17 14:42:26;;;;;;;4.03;1.20;;;;;;;29.14;38.65;97358.28;2091710;28;20985;-71
2022/10/17 14:43:29;;;;;;;12.43;1.50;;;;;;;29.27;38.26;97367.69;2092138;28;20511;-71
2022/10/17 14:44:34;;;;;;;9.20;2.00;;;;;;;28.99;38.89;97371.56;2091323;28;20975;-71
2022/10/17 14:45:38;;;;;;;6.87;1.20;;;;;;;29.29;38.50;97366.56;2091797;28;20465;-71
2022/10/17 14:46:44;;;;;;;4.77;1.70;;;;;;;28.89;39.08;97367.38;2092833;28;20578;-71
2022/10/17 14:47:52;;;;;;;3.00;1.20;;;;;;;29.05;38.81;97371.91;2091633;28;20432;-71
2022/10/17 14:49:01;;;;;;;5.63;1.70;;;;;;;29.30;38.65;97360.13;2091880;28;20496;-71
2022/10/17 14:50:19;;;;;;;4.60;1.63;;;;;;;29.14;38.89;97366.34;2090166;28;20523;-71
2022/10/17 14:51:20;;;;;;;5.47;1.50;;;;;;;29.21;38.50;97371.88;2090913;28;20449;-71
2022/10/17 14:52:27;;;;;;;6.57;1.77;;;;;;;29.21;38.56;97368.38;2091168;28;20504;-71
2022/10/17 14:53:29;;;;;;;5.63;1.37;;;;;;;28.96;38.09;97366.53;2092527;28;20425;-71
2022/10/17 14:54:34;;;;;;;6.73;1.77;;;;;;;28.50;38.68;97372.28;2089767;28;20914;-71
2022/10/17 14:55:52;;;;;;;3.17;1.17;;;;;;;28.57;39.15;97363.59;2091170;28;20565;-71
2022/10/17 14:56:54;;;;;;;7.13;1.60;;;;;;;28.77;39.01;97378.44;2092277;28;20512;-71
2022/10/17 14:57:56;;;;;;;7.80;1.40;;;;;;;28.88;38.72;97371.06;2096121;28;20943;-72
2022/10/17 14:58:58;;;;;;;9.70;1.27;;;;;;;28.57;39.09;97377.00;2096145;28;20511;-71
2022/10/17 14:59:59;;;;;;;6.80;1.40;;;;;;;28.30;39.50;97371.75;2088113;28;20436;-71
2022/10/17 15:01:01;;;;;;;7.40;1.40;;;;;;;27.84;40.03;97355.94;2088720;28;20496;-72
2022/10/17 15:02:02;;;;;;;5.03;1.58;;;;;;;27.61;40.49;97368.22;2092530;28;20508;-71
2022/10/17 15:03:04;;;;;;;5.90;1.40;;;;;;;27.75;40.49;97370.31;2092206;28;20294;-71
2022/10/17 15:04:09;;;;;;;2.95;1.38;;;;;;;27.76;40.51;97379.22;2091365;28;20734;-71
2022/10/17 15:05:11;;;;;;;3.45;1.20;;;;;;;27.86;39.85;97370.03;2091383;28;20230;-71
2022/10/17 15:06:26;;;;;;;5.88;1.40;;;;;;;28.02;40.18;97365.75;2091375;28;20356;-71
2022/10/17 15:07:31;;;;;;;6.78;1.48;;;;;;;27.93;39.28;97372.09;2092498;28;20200;-71
2022/10/17 15:08:32;;;;;;;3.30;1.05;;;;;;;28.02;38.86;97373.78;2091790;28;20295;-71
2022/10/17 15:09:34;;;;;;;8.98;1.65;;;;;;;28.08;39.06;97362.44;2090981;28;20234;-71
2022/10/17 15:10:36;;;;;;;7.97;1.40;;;;;;;27.99;39.70;97366.06;2091380;28;20302;-71
2022/10/17 15:17:01;;;;;;;4.72;1.30;;;;;;;27.98;39.55;97385.84;2092072;28;20900;-71
2022/10/17 15:18:03;;;;;;;6.45;1.85;;;;;;;27.73;40.38;97383.06;2092011;28;20287;-70
2022/10/17 15:19:04;;;;;;;8.32;1.52;;;;;;;27.23;40.61;97383.69;2092063;28;20311;-73
2022/10/17 15:20:13;;;;;;;8.95;2.17;;;;;;;27.16;41.56;97378.97;2090093;28;20312;-73
2022/10/17 15:21:16;;;;;;;5.30;1.20;;;;;;;26.97;41.77;97373.75;2092179;28;20219;-73
2022/10/17 15:22:37;;;;;;;9.25;1.92;;;;;;;26.63;42.28;97380.63;2093892;28;20530;-73
2022/10/17 15:23:41;;;;;;;3.83;1.73;;;;;;;26.89;42.15;97386.09;2092985;28;20234;-73
2022/10/17 15:24:45;;;;;;;3.20;1.40;;;;;;;26.84;41.87;97384.88;2090473;28;20206;-72
2022/10/17 15:25:46;;;;;;;4.38;1.58;;;;;;;26.84;42.25;97380.38;2087893;28;20278;-73
2022/10/17 15:26:48;;;;;;;5.90;2.10;;;;;;;26.99;42.96;97377.97;2088743;28;20232;-73
2022/10/17 15:27:50;;;;;;;2.58;1.30;;;;;;;27.11;42.65;97386.63;2091921;28;20204;-73
2022/10/17 15:34:03;;;;;;;7.05;1.40;;;;;;;26.92;42.06;97382.28;2094209;28;20187;-68
2022/10/17 15:35:05;;;;;;;7.28;1.70;;;;;;;27.10;42.33;97387.63;2092642;28;20187;-74
2022/10/17 15:36:38;;;;;;;7.05;1.63;;;;;;;26.96;43.18;97383.66;2093012;28;20718;-73
2022/10/17 15:37:41;;;;;;;5.95;1.75;;;;;;;26.63;44.06;97388.66;2074455;28;20283;-72
2022/10/17 15:38:43;;;;;;;7.13;2.22;;;;;;;26.47;45.38;97383.97;2090331;28;20287;-79